sensor_id;sensor_type;location;lat;lon;timestamp;pressure;altitude;pressure_sealevel;temperature;humidity
26937;BME280;14495;48.116;11.676;2022-09-27T00:01:06;94083.00;;;10.33;100.00
26937;BME280;14495;48.116;11.676;2022-09-27T00:03:32;94078.59;;;10.34;100.00
26937;BME280;14495;48.116;11.676;2022-09-27T00:06:05;94075.06;;;10.44;100.00
26937;BME280;14495;48.116;11.676;2022-09-27T00:08:32;94077.00;;;10.42;100.00
26937;BME280;14495;48.116;11.676;2022-09-27T00:11:41;94073.69;;;10.40;100.00
26937;BME280;14495;48.116;11.676;2022-09-27T00:13:47;94060.19;;;10.35;100.00
26937;BME280;14495;48.116;11.676;2022-09-27T00:16:13;94068.97;;;10.34;100.00
26937;BME280;14495;48.116;11.676;2022-09-27T00:18:38;94065.41;;;10.35;100.00
26937;BME280;14495;48.116;11.676;2022-09-27T00:21:09;94058.53;;;10.34;100.00
26937;BME280;14495;48.116;11.676;2022-09-27T00:23:35;94050.41;;;10.28;100.00
26937;BME280;14495;48.116;11.676;2022-09-27T00:26:02;94045.03;;;10.29;100.00
26937;BME280;14495;48.116;11.676;2022-09-27T00:28:27;94043.72;;;10.35;100.00
26937;BME280;14495;48.116;11.676;2022-09-27T00:30:53;94037.28;;;10.18;100.00
26937;BME280;14495;48.116;11.676;2022-09-27T00:33:19;94040.63;;;10.20;100.00
26937;BME280;14495;48.116;11.676;2022-09-27T00:35:45;94034.56;;;10.19;100.00
26937;BME280;14495;48.116;11.676;2022-09-27T00:38:11;94048.94;;;10.35;100.00
26937;BME280;14495;48.116;11.676;2022-09-27T00:40:37;94045.47;;;10.34;100.00
26937;BME280;14495;48.116;11.676;2022-09-27T00:43:14;94047.84;;;10.37;100.00
26937;BME280;14495;48.116;11.676;2022-09-27T00:45:41;94043.56;;;10.36;100.00
26937;BME280;14495;48.116;11.676;2022-09-27T00:48:09;94053.06;;;10.37;100.00
26937;BME280;14495;48.116;11.676;2022-09-27T00:50:40;94050.44;;;10.37;100.00
26937;BME280;14495;48.116;11.676;2022-09-27T00:53:22;94051.81;;;10.32;100.00
26937;BME280;14495;48.116;11.676;2022-09-27T00:55:53;94045.91;;;10.39;100.00
26937;BME280;14495;48.116;11.676;2022-09-27T00:58:22;94054.00;;;10.36;100.00
26937;BME280;14495;48.116;11.676;2022-09-27T01:00:51;94044.06;;;10.30;100.00
26937;BME280;14495;48.116;11.676;2022-09-27T01:03:26;94044.53;;;10.35;100.00
26937;BME280;14495;48.116;11.676;2022-09-27T01:05:54;94046.47;;;10.33;100.00
26937;BME280;14495;48.116;11.676;2022-09-27T01:08:19;94042.22;;;10.11;100.00
26937;BME280;14495;48.116;11.676;2022-09-27T01:10:58;94039.53;;;9.92;100.00
26937;BME280;14495;48.116;11.676;2022-09-27T01:14:27;94039.72;;;10.00;100.00
26937;BME280;14495;48.116;11.676;2022-09-27T01:16:53;94033.94;;;9.96;100.00
26937;BME280;14495;48.116;11.676;2022-09-27T01:19:46;94031.97;;;9.89;100.00
26937;BME280;14495;48.116;11.676;2022-09-27T01:22:24;94027.81;;;9.55;100.00
26937;BME280;14495;48.116;11.676;2022-09-27T01:24:59;94023.50;;;9.75;100.00
26937;BME280;14495;48.116;11.676;2022-09-27T01:30:20;94018.09;;;9.88;100.00
26937;BME280;14495;48.116;11.676;2022-09-27T01:35:24;94012.91;;;9.67;100.00
26937;BME280;14495;48.116;11.676;2022-09-27T01:38:21;94004.44;;;9.75;100.00
26937;BME280;14495;48.116;11.676;2022-09-27T01:40:52;94005.72;;;9.90;100.00
26937;BME280;14495;48.116;11.676;2022-09-27T01:43:23;94000.09;;;9.85;100.00
26937;BME280;14495;48.116;11.676;2022-09-27T01:45:57;93990.22;;;9.58;100.00
26937;BME280;14495;48.116;11.676;2022-09-27T01:48:27;93995.00;;;9.53;100.00
26937;BME280;14495;48.116;11.676;2022-09-27T01:51:02;93986.88;;;9.77;100.00
26937;BME280;14495;48.116;11.676;2022-09-27T01:53:34;93996.94;;;9.81;100.00
26937;BME280;14495;48.116;11.676;2022-09-27T01:56:08;93990.47;;;9.76;100.00
26937;BME280;14495;48.116;11.676;2022-09-27T02:01:11;93996.25;;;9.79;100.00
26937;BME280;14495;48.116;11.676;2022-09-27T02:03:45;93997.22;;;9.88;100.00
26937;BME280;14495;48.116;11.676;2022-09-27T02:06:20;93999.56;;;9.91;100.00
26937;BME280;14495;48.116;11.676;2022-09-27T02:09:11;93991.31;;;9.86;100.00
26937;BME280;14495;48.116;11.676;2022-09-27T02:11:40;94001.59;;;9.78;100.00
26937;BME280;14495;48.116;11.676;2022-09-27T02:14:41;93995.19;;;9.61;100.00
26937;BME280;14495;48.116;11.676;2022-09-27T02:26:02;93975.94;;;9.52;100.00
26937;BME280;14495;48.116;11.676;2022-09-27T02:28:48;93969.78;;;9.53;100.00
26937;BME280;14495;48.116;11.676;2022-09-27T02:31:16;93968.09;;;9.52;100.00
26937;BME280;14495;48.116;11.676;2022-09-27T02:33:46;93973.88;;;9.56;100.00
26937;BME280;14495;48.116;11.676;2022-09-27T02:36:13;93969.13;;;9.61;100.00
26937;BME280;14495;48.116;11.676;2022-09-27T02:38:39;93977.97;;;9.48;100.00
26937;BME280;14495;48.116;11.676;2022-09-27T02:41:17;93977.28;;;9.46;100.00
26937;BME280;14495;48.116;11.676;2022-09-27T02:43:44;93976.59;;;9.44;100.00
26937;BME280;14495;48.116;11.676;2022-09-27T02:49:06;93962.38;;;9.58;100.00
26937;BME280;14495;48.116;11.676;2022-09-27T02:54:23;93960.13;;;9.44;100.00
26937;BME280;14495;48.116;11.676;2022-09-27T03:05:16;93942.28;;;9.49;100.00
26937;BME280;14495;48.116;11.676;2022-09-27T03:07:42;93941.69;;;9.36;100.00
26937;BME280;14495;48.116;11.676;2022-09-27T03:10:15;93924.56;;;9.43;100.00
26937;BME280;14495;48.116;11.676;2022-09-27T03:12:41;93919.59;;;9.40;100.00
26937;BME280;14495;48.116;11.676;2022-09-27T03:15:07;93926.50;;;9.51;100.00
26937;BME280;14495;48.116;11.676;2022-09-27T03:17:32;93931.00;;;9.39;100.00
26937;BME280;14495;48.116;11.676;2022-09-27T03:19:57;93938.50;;;9.53;100.00
26937;BME280;14495;48.116;11.676;2022-09-27T03:22:23;93923.78;;;9.52;100.00
26937;BME280;14495;48.116;11.676;2022-09-27T03:24:48;93929.13;;;9.51;100.00
26937;BME280;14495;48.116;11.676;2022-09-27T03:27:14;93922.41;;;9.48;100.00
26937;BME280;14495;48.116;11.676;2022-09-27T03:29:39;93921.44;;;9.49;100.00
26937;BME280;14495;48.116;11.676;2022-09-27T03:32:04;93910.88;;;9.51;100.00
26937;BME280;14495;48.116;11.676;2022-09-27T03:34:30;93908.22;;;9.41;100.00
26937;BME280;14495;48.116;11.676;2022-09-27T03:36:55;93907.69;;;9.47;100.00
26937;BME280;14495;48.116;11.676;2022-09-27T03:39:20;93902.78;;;9.44;100.00
26937;BME280;14495;48.116;11.676;2022-09-27T03:41:46;93907.22;;;9.32;100.00
26937;BME280;14495;48.116;11.676;2022-09-27T03:44:11;93910.03;;;9.40;100.00
26937;BME280;14495;48.116;11.676;2022-09-27T03:46:37;93905.78;;;9.49;100.00
26937;BME280;14495;48.116;11.676;2022-09-27T03:49:02;93898.50;;;9.43;100.00
26937;BME280;14495;48.116;11.676;2022-09-27T03:51:27;93899.44;;;9.42;100.00
26937;BME280;14495;48.116;11.676;2022-09-27T03:53:53;93893.16;;;9.44;100.00
26937;BME280;14495;48.116;11.676;2022-09-27T03:56:18;93886.81;;;9.37;100.00
26937;BME280;14495;48.116;11.676;2022-09-27T03:58:43;93885.78;;;9.50;100.00
26937;BME280;14495;48.116;11.676;2022-09-27T04:01:09;93891.63;;;9.42;100.00
26937;BME280;14495;48.116;11.676;2022-09-27T04:03:35;93891.25;;;9.46;100.00
26937;BME280;14495;48.116;11.676;2022-09-27T04:06:01;93892.06;;;9.47;100.00
26937;BME280;14495;48.116;11.676;2022-09-27T04:08:27;93888.22;;;9.51;100.00
26937;BME280;14495;48.116;11.676;2022-09-27T04:10:52;93900.84;;;9.46;100.00
26937;BME280;14495;48.116;11.676;2022-09-27T04:13:18;93898.63;;;9.41;100.00
26937;BME280;14495;48.116;11.676;2022-09-27T04:15:43;93895.44;;;9.38;100.00
26937;BME280;14495;48.116;11.676;2022-09-27T04:18:09;93890.25;;;9.38;100.00
26937;BME280;14495;48.116;11.676;2022-09-27T04:20:35;93891.13;;;9.48;100.00
26937;BME280;14495;48.116;11.676;2022-09-27T04:23:01;93891.22;;;9.37;100.00
26937;BME280;14495;48.116;11.676;2022-09-27T04:25:26;93899.72;;;9.39;100.00
26937;BME280;14495;48.116;11.676;2022-09-27T04:27:51;93899.44;;;9.42;100.00
26937;BME280;14495;48.116;11.676;2022-09-27T04:30:19;93905.22;;;9.45;100.00
26937;BME280;14495;48.116;11.676;2022-09-27T04:32:44;93906.00;;;9.36;100.00
26937;BME280;14495;48.116;11.676;2022-09-27T04:35:11;93899.72;;;9.39;100.00
26937;BME280;14495;48.116;11.676;2022-09-27T04:37:55;93892.69;;;9.29;100.00
26937;BME280;14495;48.116;11.676;2022-09-27T04:40:20;93898.47;;;9.33;100.00
26937;BME280;14495;48.116;11.676;2022-09-27T04:42:49;93895.84;;;9.33;100.00
26937;BME280;14495;48.116;11.676;2022-09-27T04:45:14;93903.81;;;9.32;100.00
26937;BME280;14495;48.116;11.676;2022-09-27T04:47:49;93903.81;;;9.32;100.00
26937;BME280;14495;48.116;11.676;2022-09-27T04:50:16;93908.03;;;9.33;100.00
26937;BME280;14495;48.116;11.676;2022-09-27T04:52:42;93906.53;;;9.30;100.00
26937;BME280;14495;48.116;11.676;2022-09-27T04:55:08;93903.81;;;9.32;100.00
26937;BME280;14495;48.116;11.676;2022-09-27T04:57:34;93910.94;;;9.29;100.00
26937;BME280;14495;48.116;11.676;2022-09-27T05:00:00;93912.19;;;9.35;100.00
26937;BME280;14495;48.116;11.676;2022-09-27T05:02:26;93912.28;;;9.24;100.00
26937;BME280;14495;48.116;11.676;2022-09-27T05:04:53;93909.97;;;9.31;100.00
26937;BME280;14495;48.116;11.676;2022-09-27T05:07:22;93908.31;;;9.29;100.00
26937;BME280;14495;48.116;11.676;2022-09-27T05:09:47;93902.78;;;9.44;100.00
26937;BME280;14495;48.116;11.676;2022-09-27T05:12:13;93908.47;;;9.38;100.00
26937;BME280;14495;48.116;11.676;2022-09-27T05:14:38;93912.34;;;9.43;100.00
26937;BME280;14495;48.116;11.676;2022-09-27T05:17:04;93919.03;;;9.36;100.00
26937;BME280;14495;48.116;11.676;2022-09-27T05:19:32;93921.28;;;9.41;100.00
26937;BME280;14495;48.116;11.676;2022-09-27T05:21:58;93919.91;;;9.46;100.00
26937;BME280;14495;48.116;11.676;2022-09-27T05:24:23;93930.72;;;9.42;100.00
26937;BME280;14495;48.116;11.676;2022-09-27T05:26:48;93935.47;;;9.58;100.00
26937;BME280;14495;48.116;11.676;2022-09-27T05:29:14;93946.28;;;9.84;100.00
26937;BME280;14495;48.116;11.676;2022-09-27T05:31:40;93949.41;;;10.28;100.00
26937;BME280;14495;48.116;11.676;2022-09-27T05:34:05;93948.78;;;10.55;100.00
26937;BME280;14495;48.116;11.676;2022-09-27T05:36:33;93943.97;;;10.31;100.00
26937;BME280;14495;48.116;11.676;2022-09-27T05:38:59;93948.84;;;10.15;100.00
26937;BME280;14495;48.116;11.676;2022-09-27T05:41:24;93950.69;;;9.93;100.00
26937;BME280;14495;48.116;11.676;2022-09-27T05:43:50;93953.19;;;9.95;100.00
26937;BME280;14495;48.116;11.676;2022-09-27T05:46:16;93957.94;;;9.80;100.00
26937;BME280;14495;48.116;11.676;2022-09-27T05:48:42;93958.28;;;9.65;100.00
26937;BME280;14495;48.116;11.676;2022-09-27T05:51:07;93962.47;;;9.78;100.00
26937;BME280;14495;48.116;11.676;2022-09-27T05:53:33;93962.09;;;10.62;100.00
26937;BME280;14495;48.116;11.676;2022-09-27T05:56:02;93959.91;;;10.67;100.00
26937;BME280;14495;48.116;11.676;2022-09-27T05:58:28;93959.91;;;10.48;100.00
26937;BME280;14495;48.116;11.676;2022-09-27T06:00:54;93955.22;;;10.32;100.00
26937;BME280;14495;48.116;11.676;2022-09-27T06:03:19;93962.66;;;10.56;100.00
26937;BME280;14495;48.116;11.676;2022-09-27T06:05:44;93968.47;;;10.19;100.00
26937;BME280;14495;48.116;11.676;2022-09-27T06:08:11;93965.69;;;10.71;100.00
26937;BME280;14495;48.116;11.676;2022-09-27T06:10:38;93969.81;;;10.54;100.00
26937;BME280;14495;48.116;11.676;2022-09-27T06:13:08;93970.66;;;10.14;100.00
26937;BME280;14495;48.116;11.676;2022-09-27T06:15:35;93972.06;;;9.77;100.00
26937;BME280;14495;48.116;11.676;2022-09-27T06:18:12;93980.63;;;9.89;100.00
26937;BME280;14495;48.116;11.676;2022-09-27T06:20:40;93976.66;;;9.64;100.00
26937;BME280;14495;48.116;11.676;2022-09-27T06:23:15;93982.88;;;9.73;100.00
26937;BME280;14495;48.116;11.676;2022-09-27T06:25:41;93992.31;;;9.64;100.00
26937;BME280;14495;48.116;11.676;2022-09-27T06:28:07;93992.09;;;9.77;100.00
26937;BME280;14495;48.116;11.676;2022-09-27T06:30:40;93991.94;;;9.68;100.00
26937;BME280;14495;48.116;11.676;2022-09-27T06:33:08;94002.53;;;9.77;100.00
26937;BME280;14495;48.116;11.676;2022-09-27T06:35:35;94007.06;;;9.75;100.00
26937;BME280;14495;48.116;11.676;2022-09-27T06:38:07;94010.25;;;9.88;100.00
26937;BME280;14495;48.116;11.676;2022-09-27T06:40:36;94016.56;;;9.85;100.00
26937;BME280;14495;48.116;11.676;2022-09-27T06:43:06;94007.25;;;9.83;100.00
26937;BME280;14495;48.116;11.676;2022-09-27T06:45:37;94009.31;;;9.89;100.00
26937;BME280;14495;48.116;11.676;2022-09-27T06:48:04;94021.91;;;9.84;100.00
26937;BME280;14495;48.116;11.676;2022-09-27T06:50:31;94028.72;;;9.96;100.00
26937;BME280;14495;48.116;11.676;2022-09-27T06:52:57;94028.38;;;10.11;100.00
26937;BME280;14495;48.116;11.676;2022-09-27T06:55:22;94023.31;;;10.29;100.00
26937;BME280;14495;48.116;11.676;2022-09-27T06:57:48;94026.22;;;10.25;100.00
26937;BME280;14495;48.116;11.676;2022-09-27T07:00:32;94023.28;;;10.09;100.00
26937;BME280;14495;48.116;11.676;2022-09-27T07:02:57;94026.97;;;10.47;100.00
26937;BME280;14495;48.116;11.676;2022-09-27T07:05:27;94036.78;;;10.84;100.00
26937;BME280;14495;48.116;11.676;2022-09-27T07:07:56;94049.41;;;10.69;100.00
26937;BME280;14495;48.116;11.676;2022-09-27T07:10:26;94056.34;;;10.39;100.00
26937;BME280;14495;48.116;11.676;2022-09-27T07:12:53;94056.81;;;10.64;100.00
26937;BME280;14495;48.116;11.676;2022-09-27T07:15:19;94042.06;;;10.43;100.00
26937;BME280;14495;48.116;11.676;2022-09-27T07:17:55;94050.50;;;10.57;100.00
26937;BME280;14495;48.116;11.676;2022-09-27T07:20:22;94059.22;;;11.06;100.00
26937;BME280;14495;48.116;11.676;2022-09-27T07:22:47;94048.22;;;11.22;100.00
26937;BME280;14495;48.116;11.676;2022-09-27T07:25:13;94045.06;;;10.99;100.00
26937;BME280;14495;48.116;11.676;2022-09-27T07:27:38;94045.72;;;11.01;100.00
26937;BME280;14495;48.116;11.676;2022-09-27T07:30:06;94048.34;;;10.81;100.00
26937;BME280;14495;48.116;11.676;2022-09-27T07:32:33;94043.75;;;10.64;100.00
26937;BME280;14495;48.116;11.676;2022-09-27T07:35:01;94045.47;;;10.85;100.00
26937;BME280;14495;48.116;11.676;2022-09-27T07:37:26;94048.25;;;11.12;100.00
26937;BME280;14495;48.116;11.676;2022-09-27T07:39:51;94039.69;;;10.91;100.00
26937;BME280;14495;48.116;11.676;2022-09-27T07:42:17;94051.22;;;10.88;100.00
26937;BME280;14495;48.116;11.676;2022-09-27T07:44:42;94054.56;;;11.00;100.00
26937;BME280;14495;48.116;11.676;2022-09-27T07:47:07;94053.03;;;11.17;100.00
26937;BME280;14495;48.116;11.676;2022-09-27T07:49:34;94055.66;;;11.46;100.00
26937;BME280;14495;48.116;11.676;2022-09-27T07:52:00;94050.66;;;11.63;100.00
26937;BME280;14495;48.116;11.676;2022-09-27T07:54:25;94055.78;;;11.45;100.00
26937;BME280;14495;48.116;11.676;2022-09-27T07:56:51;94052.72;;;11.49;100.00
26937;BME280;14495;48.116;11.676;2022-09-27T07:59:16;94060.03;;;11.36;100.00
26937;BME280;14495;48.116;11.676;2022-09-27T08:01:43;94055.53;;;11.09;100.00
26937;BME280;14495;48.116;11.676;2022-09-27T08:04:10;94050.72;;;11.24;100.00
26937;BME280;14495;48.116;11.676;2022-09-27T08:06:35;94058.69;;;11.32;100.00
26937;BME280;14495;48.116;11.676;2022-09-27T08:09:05;94058.94;;;11.29;100.00
26937;BME280;14495;48.116;11.676;2022-09-27T08:11:30;94067.31;;;11.61;100.00
26937;BME280;14495;48.116;11.676;2022-09-27T08:13:56;94074.06;;;11.54;100.00
26937;BME280;14495;48.116;11.676;2022-09-27T08:16:21;94069.13;;;11.32;100.00
26937;BME280;14495;48.116;11.676;2022-09-27T08:18:46;94061.16;;;11.04;100.00
26937;BME280;14495;48.116;11.676;2022-09-27T08:21:12;94088.91;;;10.86;100.00
26937;BME280;14495;48.116;11.676;2022-09-27T08:23:37;94112.34;;;10.56;100.00
26937;BME280;14495;48.116;11.676;2022-09-27T08:26:02;94114.59;;;10.09;100.00
26937;BME280;14495;48.116;11.676;2022-09-27T08:28:28;94125.44;;;9.83;100.00
26937;BME280;14495;48.116;11.676;2022-09-27T08:30:53;94148.19;;;9.39;100.00
26937;BME280;14495;48.116;11.676;2022-09-27T08:33:19;94142.75;;;8.99;100.00
26937;BME280;14495;48.116;11.676;2022-09-27T08:35:45;94147.47;;;8.94;100.00
26937;BME280;14495;48.116;11.676;2022-09-27T08:38:11;94149.03;;;8.96;100.00
26937;BME280;14495;48.116;11.676;2022-09-27T08:40:41;94144.09;;;9.14;100.00
26937;BME280;14495;48.116;11.676;2022-09-27T08:46:04;94160.22;;;9.19;100.00
26937;BME280;14495;48.116;11.676;2022-09-27T08:48:31;94149.34;;;9.03;100.00
26937;BME280;14495;48.116;11.676;2022-09-27T08:51:01;94156.16;;;9.26;100.00
26937;BME280;14495;48.116;11.676;2022-09-27T08:53:48;94155.41;;;9.36;100.00
26937;BME280;14495;48.116;11.676;2022-09-27T08:56:15;94158.03;;;9.57;100.00
26937;BME280;14495;48.116;11.676;2022-09-27T08:59:00;94153.84;;;10.29;100.00
26937;BME280;14495;48.116;11.676;2022-09-27T09:01:29;94150.25;;;10.81;100.00
26937;BME280;14495;48.116;11.676;2022-09-27T09:03:58;94152.38;;;10.57;100.00
26937;BME280;14495;48.116;11.676;2022-09-27T09:06:27;94148.41;;;10.62;100.00
26937;BME280;14495;48.116;11.676;2022-09-27T09:09:02;94149.09;;;12.03;100.00
26937;BME280;14495;48.116;11.676;2022-09-27T09:20:10;94149.13;;;10.74;100.00
26937;BME280;14495;48.116;11.676;2022-09-27T09:33:38;94131.44;;;15.10;100.00
26937;BME280;14495;48.116;11.676;2022-09-27T09:36:27;94136.00;;;15.67;100.00
26937;BME280;14495;48.116;11.676;2022-09-27T09:39:17;94125.75;;;15.39;100.00
26937;BME280;14495;48.116;11.676;2022-09-27T09:42:13;94135.28;;;14.81;100.00
26937;BME280;14495;48.116;11.676;2022-09-27T09:47:36;94157.09;;;13.13;100.00
26937;BME280;14495;48.116;11.676;2022-09-27T09:50:15;94134.78;;;11.77;100.00
26937;BME280;14495;48.116;11.676;2022-09-27T09:52:45;94146.91;;;11.59;100.00
26937;BME280;14495;48.116;11.676;2022-09-27T09:57:55;94148.16;;;11.94;100.00
26937;BME280;14495;48.116;11.676;2022-09-27T10:00:23;94150.63;;;11.66;100.00
26937;BME280;14495;48.116;11.676;2022-09-27T10:02:51;94157.19;;;11.12;100.00
26937;BME280;14495;48.116;11.676;2022-09-27T10:05:20;94172.16;;;11.00;100.00
26937;BME280;14495;48.116;11.676;2022-09-27T10:07:47;94162.09;;;10.95;100.00
26937;BME280;14495;48.116;11.676;2022-09-27T10:10:16;94166.56;;;11.14;100.00
26937;BME280;14495;48.116;11.676;2022-09-27T10:12:43;94171.47;;;10.98;100.00
26937;BME280;14495;48.116;11.676;2022-09-27T10:15:13;94179.41;;;10.87;100.00
26937;BME280;14495;48.116;11.676;2022-09-27T10:17:43;94186.34;;;11.07;100.00
26937;BME280;14495;48.116;11.676;2022-09-27T10:20:24;94172.66;;;10.84;100.00
26937;BME280;14495;48.116;11.676;2022-09-27T10:22:53;94175.00;;;10.77;100.00
26937;BME280;14495;48.116;11.676;2022-09-27T10:25:20;94189.41;;;10.72;100.00
26937;BME280;14495;48.116;11.676;2022-09-27T10:27:48;94192.41;;;10.67;100.00
26937;BME280;14495;48.116;11.676;2022-09-27T10:32:57;94196.69;;;10.26;100.00
26937;BME280;14495;48.116;11.676;2022-09-27T10:35:40;94189.44;;;10.09;100.00
26937;BME280;14495;48.116;11.676;2022-09-27T10:38:33;94201.34;;;10.22;100.00
26937;BME280;14495;48.116;11.676;2022-09-27T10:41:25;94204.75;;;10.34;100.00
26937;BME280;14495;48.116;11.676;2022-09-27T10:43:51;94199.38;;;10.57;100.00
26937;BME280;14495;48.116;11.676;2022-09-27T10:46:26;94207.22;;;10.57;100.00
26937;BME280;14495;48.116;11.676;2022-09-27T10:49:48;94221.63;;;10.92;100.00
26937;BME280;14495;48.116;11.676;2022-09-27T10:52:18;94217.72;;;10.76;100.00
26937;BME280;14495;48.116;11.676;2022-09-27T10:55:07;94228.81;;;10.38;100.00
26937;BME280;14495;48.116;11.676;2022-09-27T10:57:40;94228.47;;;10.10;100.00
26937;BME280;14495;48.116;11.676;2022-09-27T11:00:29;94220.25;;;9.94;100.00
26937;BME280;14495;48.116;11.676;2022-09-27T11:03:00;94206.84;;;9.98;100.00
26937;BME280;14495;48.116;11.676;2022-09-27T11:08:18;94214.41;;;10.22;100.00
26937;BME280;14495;48.116;11.676;2022-09-27T11:11:18;94209.56;;;12.19;100.00
26937;BME280;14495;48.116;11.676;2022-09-27T11:19:51;94202.66;;;18.47;98.87
26937;BME280;14495;48.116;11.676;2022-09-27T11:22:32;94201.47;;;17.81;90.25
26937;BME280;14495;48.116;11.676;2022-09-27T11:27:39;94196.00;;;16.31;100.00
26937;BME280;14495;48.116;11.676;2022-09-27T11:30:12;94195.66;;;16.26;95.00
26937;BME280;14495;48.116;11.676;2022-09-27T11:32:52;94195.63;;;14.13;100.00
26937;BME280;14495;48.116;11.676;2022-09-27T11:35:33;94194.91;;;15.07;100.00
26937;BME280;14495;48.116;11.676;2022-09-27T11:40:46;94186.47;;;13.45;100.00
26937;BME280;14495;48.116;11.676;2022-09-27T11:51:29;94192.75;;;12.22;100.00
26937;BME280;14495;48.116;11.676;2022-09-27T11:59:46;94174.41;;;16.27;93.08
26937;BME280;14495;48.116;11.676;2022-09-27T12:05:41;94168.75;;;14.71;100.00
26937;BME280;14495;48.116;11.676;2022-09-27T12:10:47;94167.78;;;12.37;100.00
26937;BME280;14495;48.116;11.676;2022-09-27T12:13:14;94163.28;;;11.32;100.00
26937;BME280;14495;48.116;11.676;2022-09-27T12:15:44;94162.88;;;11.46;100.00
26937;BME280;14495;48.116;11.676;2022-09-27T12:18:25;94158.88;;;11.42;100.00
26937;BME280;14495;48.116;11.676;2022-09-27T12:20:54;94160.00;;;11.59;100.00
26937;BME280;14495;48.116;11.676;2022-09-27T12:23:25;94144.25;;;11.10;100.00
26937;BME280;14495;48.116;11.676;2022-09-27T12:25:58;94142.34;;;13.12;100.00
26937;BME280;14495;48.116;11.676;2022-09-27T12:28:36;94123.41;;;14.17;99.13
26937;BME280;14495;48.116;11.676;2022-09-27T12:31:14;94155.41;;;16.56;83.05
26937;BME280;14495;48.116;11.676;2022-09-27T12:33:50;94161.41;;;17.37;75.18
26937;BME280;14495;48.116;11.676;2022-09-27T12:36:22;94165.03;;;15.92;83.45
26937;BME280;14495;48.116;11.676;2022-09-27T12:38:57;94171.09;;;14.56;100.00
26937;BME280;14495;48.116;11.676;2022-09-27T12:41:29;94159.63;;;14.05;100.00
26937;BME280;14495;48.116;11.676;2022-09-27T12:43:56;94170.44;;;14.28;100.00
26937;BME280;14495;48.116;11.676;2022-09-27T12:49:15;94152.13;;;17.50;77.38
26937;BME280;14495;48.116;11.676;2022-09-27T12:51:50;94140.47;;;18.66;65.75
26937;BME280;14495;48.116;11.676;2022-09-27T12:54:26;94140.19;;;18.61;63.12
26937;BME280;14495;48.116;11.676;2022-09-27T13:00:34;94144.28;;;15.89;69.71
26937;BME280;14495;48.116;11.676;2022-09-27T13:06:28;94153.31;;;14.68;89.45
26937;BME280;14495;48.116;11.676;2022-09-27T13:09:34;94139.03;;;16.05;70.26
26937;BME280;14495;48.116;11.676;2022-09-27T13:12:21;94143.91;;;15.67;69.58
26937;BME280;14495;48.116;11.676;2022-09-27T13:14:58;94139.28;;;14.07;84.40
26937;BME280;14495;48.116;11.676;2022-09-27T13:22:51;94141.16;;;13.79;87.62
26937;BME280;14495;48.116;11.676;2022-09-27T13:25:49;94146.69;;;14.11;86.80
26937;BME280;14495;48.116;11.676;2022-09-27T13:30:52;94164.03;;;13.32;78.76
26937;BME280;14495;48.116;11.676;2022-09-27T13:41:19;94145.63;;;12.59;91.43
26937;BME280;14495;48.116;11.676;2022-09-27T13:44:20;94145.06;;;12.93;100.00
26937;BME280;14495;48.116;11.676;2022-09-27T13:46:52;94156.28;;;13.59;100.00
26937;BME280;14495;48.116;11.676;2022-09-27T13:51:55;94152.19;;;12.35;89.24
26937;BME280;14495;48.116;11.676;2022-09-27T13:56:59;94157.34;;;12.65;96.10
26937;BME280;14495;48.116;11.676;2022-09-27T13:59:32;94162.31;;;12.58;96.34
26937;BME280;14495;48.116;11.676;2022-09-27T14:02:19;94168.34;;;12.31;100.00
26937;BME280;14495;48.116;11.676;2022-09-27T14:04:49;94172.94;;;12.09;100.00
26937;BME280;14495;48.116;11.676;2022-09-27T14:07:25;94185.47;;;11.57;100.00
26937;BME280;14495;48.116;11.676;2022-09-27T14:09:53;94170.72;;;11.46;100.00
26937;BME280;14495;48.116;11.676;2022-09-27T14:12:24;94172.50;;;11.36;100.00
26937;BME280;14495;48.116;11.676;2022-09-27T14:14:52;94163.56;;;10.78;100.00
26937;BME280;14495;48.116;11.676;2022-09-27T14:17:19;94169.31;;;10.72;100.00
26937;BME280;14495;48.116;11.676;2022-09-27T14:19:45;94169.88;;;10.66;100.00
26937;BME280;14495;48.116;11.676;2022-09-27T14:22:18;94172.97;;;10.60;100.00
26937;BME280;14495;48.116;11.676;2022-09-27T14:24:45;94186.22;;;10.68;100.00
26937;BME280;14495;48.116;11.676;2022-09-27T14:27:20;94187.66;;;10.92;100.00
26937;BME280;14495;48.116;11.676;2022-09-27T14:32:16;94187.06;;;10.78;100.00
26937;BME280;14495;48.116;11.676;2022-09-27T14:34:42;94188.84;;;10.68;100.00
26937;BME280;14495;48.116;11.676;2022-09-27T14:37:20;94190.03;;;10.95;100.00
26937;BME280;14495;48.116;11.676;2022-09-27T14:40:01;94182.94;;;10.76;100.00
26937;BME280;14495;48.116;11.676;2022-09-27T14:42:35;94197.25;;;11.12;100.00
26937;BME280;14495;48.116;11.676;2022-09-27T14:45:21;94192.59;;;10.75;100.00
26937;BME280;14495;48.116;11.676;2022-09-27T14:47:49;94199.03;;;10.40;100.00
26937;BME280;14495;48.116;11.676;2022-09-27T14:50:21;94193.34;;;10.35;100.00
26937;BME280;14495;48.116;11.676;2022-09-27T14:52:47;94192.06;;;10.30;100.00
26937;BME280;14495;48.116;11.676;2022-09-27T14:55:17;94194.66;;;10.51;100.00
26937;BME280;14495;48.116;11.676;2022-09-27T14:57:50;94193.53;;;10.43;100.00
26937;BME280;14495;48.116;11.676;2022-09-27T15:00:29;94187.47;;;10.43;100.00
26937;BME280;14495;48.116;11.676;2022-09-27T15:03:02;94185.78;;;10.94;100.00
26937;BME280;14495;48.116;11.676;2022-09-27T15:05:33;94178.66;;;10.65;100.00
26937;BME280;14495;48.116;11.676;2022-09-27T15:08:02;94180.53;;;10.94;100.00
26937;BME280;14495;48.116;11.676;2022-09-27T15:10:32;94191.97;;;11.02;100.00
26937;BME280;14495;48.116;11.676;2022-09-27T15:12:59;94186.03;;;10.60;100.00